sensor_id;sensor_type;location;lat;lon;timestamp;pressure;altitude;pressure_sealevel;temperature;humidity
28310;BME280;15571;50.974;13.936;2023-02-12T00:02:12;101862.53;;;5.24;100.00
28310;BME280;15571;50.974;13.936;2023-02-12T00:05:14;101865.91;;;5.21;100.00
28310;BME280;15571;50.974;13.936;2023-02-12T00:08:16;101855.56;;;5.23;100.00
28310;BME280;15571;50.974;13.936;2023-02-12T00:11:21;101861.56;;;5.22;100.00
28310;BME280;15571;50.974;13.936;2023-02-12T00:14:25;101855.41;;;5.20;100.00
28310;BME280;15571;50.974;13.936;2023-02-12T00:17:27;101858.91;;;5.20;100.00
28310;BME280;15571;50.974;13.936;2023-02-12T00:20:29;101849.41;;;5.21;100.00
28310;BME280;15571;50.974;13.936;2023-02-12T00:23:32;101861.56;;;5.22;100.00
28310;BME280;15571;50.974;13.936;2023-02-12T00:26:38;101861.56;;;5.22;100.00
28310;BME280;15571;50.974;13.936;2023-02-12T00:29:45;101863.50;;;5.26;100.00
28310;BME280;15571;50.974;13.936;2023-02-12T00:32:47;101869.56;;;5.26;100.00
28310;BME280;15571;50.974;13.936;2023-02-12T00:35:54;101863.63;;;5.29;100.00
28310;BME280;15571;50.974;13.936;2023-02-12T00:38:56;101870.47;;;5.27;100.00
28310;BME280;15571;50.974;13.936;2023-02-12T00:41:59;101873.06;;;5.27;100.00
28310;BME280;15571;50.974;13.936;2023-02-12T00:45:01;101870.47;;;5.27;100.00
28310;BME280;15571;50.974;13.936;2023-02-12T00:48:04;101869.69;;;5.29;100.00
28310;BME280;15571;50.974;13.936;2023-02-12T00:51:08;101867.16;;;5.31;100.00
28310;BME280;15571;50.974;13.936;2023-02-12T00:54:09;101867.16;;;5.31;100.00
28310;BME280;15571;50.974;13.936;2023-02-12T00:57:13;101877.53;;;5.31;100.00
28310;BME280;15571;50.974;13.936;2023-02-12T01:00:15;101872.34;;;5.31;100.00
28310;BME280;15571;50.974;13.936;2023-02-12T01:03:20;101882.75;;;5.31;100.00
28310;BME280;15571;50.974;13.936;2023-02-12T01:06:22;101894.91;;;5.32;100.00
28310;BME280;15571;50.974;13.936;2023-02-12T01:09:29;101897.44;;;5.30;100.00
28310;BME280;15571;50.974;13.936;2023-02-12T01:12:32;101904.31;;;5.30;100.00
28310;BME280;15571;50.974;13.936;2023-02-12T01:15:34;101894.78;;;5.29;100.00
28310;BME280;15571;50.974;13.936;2023-02-12T01:18:39;101893.94;;;5.30;100.00
28310;BME280;15571;50.974;13.936;2023-02-12T01:21:40;101897.38;;;5.29;100.00
28310;BME280;15571;50.974;13.936;2023-02-12T01:24:43;101889.59;;;5.29;100.00
28310;BME280;15571;50.974;13.936;2023-02-12T01:27:47;101887.81;;;5.28;100.00
28310;BME280;15571;50.974;13.936;2023-02-12T01:30:49;101880.84;;;5.27;100.00
28310;BME280;15571;50.974;13.936;2023-02-12T01:33:51;101886.03;;;5.27;100.00
28310;BME280;15571;50.974;13.936;2023-02-12T01:36:54;101891.22;;;5.27;100.00
28310;BME280;15571;50.974;13.936;2023-02-12T01:39:58;101893.00;;;5.28;100.00
28310;BME280;15571;50.974;13.936;2023-02-12T01:43:01;101897.31;;;5.27;100.00
28310;BME280;15571;50.974;13.936;2023-02-12T01:46:04;101906.81;;;5.27;100.00
28310;BME280;15571;50.974;13.936;2023-02-12T01:49:08;101899.84;;;5.26;100.00
28310;BME280;15571;50.974;13.936;2023-02-12T01:52:13;101905.91;;;5.26;100.00
28310;BME280;15571;50.974;13.936;2023-02-12T01:55:20;101898.06;;;5.25;100.00
28310;BME280;15571;50.974;13.936;2023-02-12T01:58:24;101904.22;;;5.27;100.00
28310;BME280;15571;50.974;13.936;2023-02-12T02:01:36;101902.50;;;5.27;100.00
28310;BME280;15571;50.974;13.936;2023-02-12T02:04:43;101893.84;;;5.27;100.00
28310;BME280;15571;50.974;13.936;2023-02-12T02:07:47;101900.84;;;5.29;100.00
28310;BME280;15571;50.974;13.936;2023-02-12T02:10:49;101903.50;;;5.31;100.00
28310;BME280;15571;50.974;13.936;2023-02-12T02:13:56;101899.09;;;5.28;100.00
28310;BME280;15571;50.974;13.936;2023-02-12T02:17:30;101906.06;;;5.29;100.00
28310;BME280;15571;50.974;13.936;2023-02-12T02:20:48;101900.84;;;5.29;100.00
28310;BME280;15571;50.974;13.936;2023-02-12T02:24:06;101905.28;;;5.32;100.00
28310;BME280;15571;50.974;13.936;2023-02-12T02:27:20;101907.06;;;5.33;100.00
28310;BME280;15571;50.974;13.936;2023-02-12T02:30:31;101905.28;;;5.32;100.00
28310;BME280;15571;50.974;13.936;2023-02-12T02:33:36;101906.25;;;5.34;100.00
28310;BME280;15571;50.974;13.936;2023-02-12T02:36:40;101909.59;;;5.32;100.00
28310;BME280;15571;50.974;13.936;2023-02-12T02:39:47;101913.06;;;5.32;100.00
28310;BME280;15571;50.974;13.936;2023-02-12T02:42:51;101915.81;;;5.35;100.00
28310;BME280;15571;50.974;13.936;2023-02-12T02:45:57;101910.63;;;5.35;100.00
28310;BME280;15571;50.974;13.936;2023-02-12T02:49:01;101915.06;;;5.38;100.00
28310;BME280;15571;50.974;13.936;2023-02-12T02:52:05;101919.22;;;5.34;100.00
28310;BME280;15571;50.974;13.936;2023-02-12T02:55:08;101914.19;;;5.37;100.00
28310;BME280;15571;50.974;13.936;2023-02-12T02:58:14;101914.25;;;5.39;100.00
28310;BME280;15571;50.974;13.936;2023-02-12T03:01:21;101916.84;;;5.39;100.00
28310;BME280;15571;50.974;13.936;2023-02-12T03:04:26;101915.97;;;5.38;100.00
28310;BME280;15571;50.974;13.936;2023-02-12T03:07:32;101925.38;;;5.36;100.00
28310;BME280;15571;50.974;13.936;2023-02-12T03:10:39;101927.97;;;5.36;100.00
28310;BME280;15571;50.974;13.936;2023-02-12T03:13:44;101936.75;;;5.38;100.00
28310;BME280;15571;50.974;13.936;2023-02-12T03:16:50;101944.53;;;5.38;100.00
28310;BME280;15571;50.974;13.936;2023-02-12T03:19:57;101937.66;;;5.40;100.00
28310;BME280;15571;50.974;13.936;2023-02-12T03:23:01;101937.75;;;5.42;100.00
28310;BME280;15571;50.974;13.936;2023-02-12T03:26:05;101944.63;;;5.41;100.00
28310;BME280;15571;50.974;13.936;2023-02-12T03:29:11;101946.28;;;5.39;100.00
28310;BME280;15571;50.974;13.936;2023-02-12T03:32:26;101950.66;;;5.40;100.00
28310;BME280;15571;50.974;13.936;2023-02-12T03:35:31;101952.44;;;5.41;100.00
28310;BME280;15571;50.974;13.936;2023-02-12T03:38:35;101960.97;;;5.39;100.00
28310;BME280;15571;50.974;13.936;2023-02-12T03:41:41;101966.22;;;5.40;100.00
28310;BME280;15571;50.974;13.936;2023-02-12T03:44:45;101970.56;;;5.40;100.00
28310;BME280;15571;50.974;13.936;2023-02-12T03:47:54;101979.16;;;5.39;100.00
28310;BME280;15571;50.974;13.936;2023-02-12T03:51:01;101976.63;;;5.40;100.00
28310;BME280;15571;50.974;13.936;2023-02-12T03:54:05;101978.28;;;5.38;100.00
28310;BME280;15571;50.974;13.936;2023-02-12T03:57:09;101987.00;;;5.40;100.00
28310;BME280;15571;50.974;13.936;2023-02-12T04:00:14;102000.97;;;5.42;100.00
28310;BME280;15571;50.974;13.936;2023-02-12T04:03:18;101995.78;;;5.42;100.00
28310;BME280;15571;50.974;13.936;2023-02-12T04:06:20;102004.47;;;5.43;100.00
28310;BME280;15571;50.974;13.936;2023-02-12T04:09:26;102013.94;;;5.42;100.00
28310;BME280;15571;50.974;13.936;2023-02-12T04:12:38;102018.31;;;5.43;100.00
28310;BME280;15571;50.974;13.936;2023-02-12T04:15:46;102010.38;;;5.40;100.00
28310;BME280;15571;50.974;13.936;2023-02-12T04:18:51;102012.25;;;5.43;100.00
28310;BME280;15571;50.974;13.936;2023-02-12T04:22:00;102005.34;;;5.43;100.00
28310;BME280;15571;50.974;13.936;2023-02-12T04:25:11;102012.16;;;5.41;100.00
28310;BME280;15571;50.974;13.936;2023-02-12T04:28:23;102010.38;;;5.40;100.00
28310;BME280;15571;50.974;13.936;2023-02-12T04:31:29;102010.38;;;5.40;100.00
28310;BME280;15571;50.974;13.936;2023-02-12T04:34:36;102017.34;;;5.41;100.00
28310;BME280;15571;50.974;13.936;2023-02-12T04:37:40;102010.47;;;5.42;100.00
28310;BME280;15571;50.974;13.936;2023-02-12T04:40:46;102014.75;;;5.41;100.00
28310;BME280;15571;50.974;13.936;2023-02-12T04:43:51;102011.34;;;5.42;100.00
28310;BME280;15571;50.974;13.936;2023-02-12T04:46:55;102015.56;;;5.40;100.00
28310;BME280;15571;50.974;13.936;2023-02-12T04:49:58;102021.69;;;5.41;100.00
28310;BME280;15571;50.974;13.936;2023-02-12T04:53:02;102022.50;;;5.40;100.00
28310;BME280;15571;50.974;13.936;2023-02-12T04:56:09;102014.84;;;5.43;100.00
28310;BME280;15571;50.974;13.936;2023-02-12T04:59:12;102019.09;;;5.41;100.00
28310;BME280;15571;50.974;13.936;2023-02-12T05:02:17;102025.16;;;5.41;100.00
28310;BME280;15571;50.974;13.936;2023-02-12T05:05:21;102024.38;;;5.44;100.00
28310;BME280;15571;50.974;13.936;2023-02-12T05:08:23;102026.13;;;5.43;100.00
28310;BME280;15571;50.974;13.936;2023-02-12T05:11:25;102028.72;;;5.43;100.00
28310;BME280;15571;50.974;13.936;2023-02-12T05:14:27;102029.59;;;5.44;100.00
28310;BME280;15571;50.974;13.936;2023-02-12T05:17:29;102033.91;;;5.43;100.00
28310;BME280;15571;50.974;13.936;2023-02-12T05:20:32;102033.91;;;5.43;100.00
28310;BME280;15571;50.974;13.936;2023-02-12T05:23:34;102026.13;;;5.43;100.00
28310;BME280;15571;50.974;13.936;2023-02-12T05:26:36;102033.91;;;5.43;100.00
28310;BME280;15571;50.974;13.936;2023-02-12T05:29:38;102031.31;;;5.43;100.00
28310;BME280;15571;50.974;13.936;2023-02-12T05:32:40;102031.97;;;5.39;100.00
28310;BME280;15571;50.974;13.936;2023-02-12T05:35:44;102043.34;;;5.41;100.00
28310;BME280;15571;50.974;13.936;2023-02-12T05:38:46;102040.72;;;5.41;100.00
28310;BME280;15571;50.974;13.936;2023-02-12T05:41:48;102051.13;;;5.41;100.00
28310;BME280;15571;50.974;13.936;2023-02-12T05:44:49;102050.31;;;5.42;100.00
28310;BME280;15571;50.974;13.936;2023-02-12T05:47:51;102049.50;;;5.43;100.00
28310;BME280;15571;50.974;13.936;2023-02-12T05:50:59;102051.13;;;5.41;100.00
28310;BME280;15571;50.974;13.936;2023-02-12T05:54:03;102056.31;;;5.41;100.00
28310;BME280;15571;50.974;13.936;2023-02-12T05:57:05;102051.13;;;5.41;100.00
28310;BME280;15571;50.974;13.936;2023-02-12T06:00:09;102058.84;;;5.40;100.00
28310;BME280;15571;50.974;13.936;2023-02-12T06:03:14;102058.81;;;5.38;100.00
28310;BME280;15571;50.974;13.936;2023-02-12T06:06:17;102062.28;;;5.39;100.00
28310;BME280;15571;50.974;13.936;2023-02-12T06:09:19;102068.34;;;5.39;100.00
28310;BME280;15571;50.974;13.936;2023-02-12T06:12:21;102066.59;;;5.38;100.00
28310;BME280;15571;50.974;13.936;2023-02-12T06:15:23;102073.53;;;5.39;100.00
28310;BME280;15571;50.974;13.936;2023-02-12T06:18:25;102071.78;;;5.38;100.00
28310;BME280;15571;50.974;13.936;2023-02-12T06:21:28;102083.00;;;5.37;100.00
28310;BME280;15571;50.974;13.936;2023-02-12T06:24:30;102080.41;;;5.37;100.00
28310;BME280;15571;50.974;13.936;2023-02-12T06:27:32;102088.09;;;5.36;100.00
28310;BME280;15571;50.974;13.936;2023-02-12T06:30:34;102092.47;;;5.37;100.00
28310;BME280;15571;50.974;13.936;2023-02-12T06:33:36;102097.66;;;5.37;100.00
28310;BME280;15571;50.974;13.936;2023-02-12T06:36:40;102099.38;;;5.36;100.00
28310;BME280;15571;50.974;13.936;2023-02-12T06:39:43;102111.41;;;5.34;100.00
28310;BME280;15571;50.974;13.936;2023-02-12T06:42:45;102117.47;;;5.35;100.00
28310;BME280;15571;50.974;13.936;2023-02-12T06:45:47;102116.59;;;5.34;100.00
28310;BME280;15571;50.974;13.936;2023-02-12T06:48:51;102115.72;;;5.34;100.00
28310;BME280;15571;50.974;13.936;2023-02-12T06:51:54;102124.38;;;5.34;100.00
28310;BME280;15571;50.974;13.936;2023-02-12T06:54:56;102130.41;;;5.33;100.00
28310;BME280;15571;50.974;13.936;2023-02-12T06:57:58;102133.00;;;5.33;100.00
28310;BME280;15571;50.974;13.936;2023-02-12T07:01:06;102139.00;;;5.32;100.00
28310;BME280;15571;50.974;13.936;2023-02-12T07:04:10;102138.13;;;5.32;100.00
28310;BME280;15571;50.974;13.936;2023-02-12T07:07:13;102141.59;;;5.32;100.00
28310;BME280;15571;50.974;13.936;2023-02-12T07:10:15;102140.72;;;5.32;100.00
28310;BME280;15571;50.974;13.936;2023-02-12T07:13:18;102144.19;;;5.32;100.00
28310;BME280;15571;50.974;13.936;2023-02-12T07:16:21;102146.78;;;5.32;100.00
28310;BME280;15571;50.974;13.936;2023-02-12T07:19:23;102146.72;;;5.30;100.00
28310;BME280;15571;50.974;13.936;2023-02-12T07:22:26;102152.00;;;5.32;100.00
28310;BME280;15571;50.974;13.936;2023-02-12T07:25:28;102152.00;;;5.32;100.00
28310;BME280;15571;50.974;13.936;2023-02-12T07:28:30;102155.50;;;5.33;100.00
28310;BME280;15571;50.974;13.936;2023-02-12T07:31:35;102161.56;;;5.33;100.00
28310;BME280;15571;50.974;13.936;2023-02-12T07:34:37;102160.75;;;5.34;100.00
28310;BME280;15571;50.974;13.936;2023-02-12T07:37:41;102157.34;;;5.35;100.00
28310;BME280;15571;50.974;13.936;2023-02-12T07:40:43;102152.16;;;5.35;100.00
28310;BME280;15571;50.974;13.936;2023-02-12T07:43:46;102156.53;;;5.36;100.00
28310;BME280;15571;50.974;13.936;2023-02-12T07:46:54;102161.78;;;5.38;100.00
28310;BME280;15571;50.974;13.936;2023-02-12T07:49:56;102164.44;;;5.39;100.00
28310;BME280;15571;50.974;13.936;2023-02-12T07:53:06;102167.03;;;5.39;100.00
28310;BME280;15571;50.974;13.936;2023-02-12T07:56:09;102170.59;;;5.41;100.00
28310;BME280;15571;50.974;13.936;2023-02-12T07:59:11;102177.56;;;5.42;100.00
28310;BME280;15571;50.974;13.936;2023-02-12T08:02:14;102179.38;;;5.43;100.00
28310;BME280;15571;50.974;13.936;2023-02-12T08:05:18;102172.44;;;5.44;100.00
28310;BME280;15571;50.974;13.936;2023-02-12T08:08:25;102175.94;;;5.44;100.00
28310;BME280;15571;50.974;13.936;2023-02-12T08:11:27;102185.53;;;5.45;100.00
28310;BME280;15571;50.974;13.936;2023-02-12T08:14:31;102183.81;;;5.46;100.00
28310;BME280;15571;50.974;13.936;2023-02-12T08:17:34;102181.31;;;5.48;100.00
28310;BME280;15571;50.974;13.936;2023-02-12T08:20:35;102183.97;;;5.49;100.00
28310;BME280;15571;50.974;13.936;2023-02-12T08:23:41;102176.22;;;5.51;100.00
28310;BME280;15571;50.974;13.936;2023-02-12T08:26:43;102183.19;;;5.52;100.00
28310;BME280;15571;50.974;13.936;2023-02-12T08:29:48;102178.09;;;5.53;100.00
28310;BME280;15571;50.974;13.936;2023-02-12T08:32:50;102191.16;;;5.55;100.00
28310;BME280;15571;50.974;13.936;2023-02-12T08:35:59;102193.91;;;5.58;100.00
28310;BME280;15571;50.974;13.936;2023-02-12T08:39:05;102191.38;;;5.59;100.00
28310;BME280;15571;50.974;13.936;2023-02-12T08:42:07;102189.72;;;5.61;100.00
28310;BME280;15571;50.974;13.936;2023-02-12T08:45:11;102188.16;;;5.65;100.00
28310;BME280;15571;50.974;13.936;2023-02-12T08:48:13;102201.28;;;5.68;100.00
28310;BME280;15571;50.974;13.936;2023-02-12T08:51:16;102202.34;;;5.72;100.00
28310;BME280;15571;50.974;13.936;2023-02-12T08:54:20;102203.38;;;5.75;100.00
28310;BME280;15571;50.974;13.936;2023-02-12T08:57:23;102206.03;;;5.77;100.00
28310;BME280;15571;50.974;13.936;2023-02-12T09:00:30;102214.03;;;5.82;100.00
28310;BME280;15571;50.974;13.936;2023-02-12T09:03:36;102212.41;;;5.84;100.00
28310;BME280;15571;50.974;13.936;2023-02-12T09:06:38;102213.41;;;5.87;100.00
28310;BME280;15571;50.974;13.936;2023-02-12T09:09:41;102217.88;;;5.90;100.00
28310;BME280;15571;50.974;13.936;2023-02-12T09:12:43;102224.94;;;5.92;100.00
28310;BME280;15571;50.974;13.936;2023-02-12T09:15:45;102224.19;;;5.95;100.00
28310;BME280;15571;50.974;13.936;2023-02-12T09:18:47;102229.38;;;5.95;100.00
28310;BME280;15571;50.974;13.936;2023-02-12T09:21:49;102230.34;;;5.97;100.00
28310;BME280;15571;50.974;13.936;2023-02-12T09:24:54;102226.13;;;5.99;100.00
28310;BME280;15571;50.974;13.936;2023-02-12T09:27:56;102236.66;;;6.02;100.00
28310;BME280;15571;50.974;13.936;2023-02-12T09:30:58;102232.44;;;6.04;100.00
28310;BME280;15571;50.974;13.936;2023-02-12T09:34:00;102236.06;;;6.08;100.00
28310;BME280;15571;50.974;13.936;2023-02-12T09:37:03;102242.94;;;6.07;100.00
28310;BME280;15571;50.974;13.936;2023-02-12T09:40:15;102243.66;;;6.03;100.00
28310;BME280;15571;50.974;13.936;2023-02-12T09:43:22;102249.66;;;6.02;100.00
28310;BME280;15571;50.974;13.936;2023-02-12T09:46:31;102243.91;;;6.10;100.00
28310;BME280;15571;50.974;13.936;2023-02-12T09:49:50;102251.88;;;6.13;100.00
28310;BME280;15571;50.974;13.936;2023-02-12T09:52:57;102248.44;;;6.14;100.00
28310;BME280;15571;50.974;13.936;2023-02-12T09:56:00;102249.47;;;6.17;100.00
28310;BME280;15571;50.974;13.936;2023-02-12T09:59:05;102252.13;;;6.19;100.00
28310;BME280;15571;50.974;13.936;2023-02-12T10:02:10;102252.28;;;6.22;100.00
28310;BME280;15571;50.974;13.936;2023-02-12T10:05:18;102258.44;;;6.24;100.00
28310;BME280;15571;50.974;13.936;2023-02-12T10:08:30;102268.03;;;6.25;100.00
28310;BME280;15571;50.974;13.936;2023-02-12T10:11:45;102260.28;;;6.27;100.00
28310;BME280;15571;50.974;13.936;2023-02-12T10:15:03;102272.47;;;6.28;100.00
28310;BME280;15571;50.974;13.936;2023-02-12T10:18:14;102266.38;;;6.27;100.00
28310;BME280;15571;50.974;13.936;2023-02-12T10:21:26;102268.16;;;6.28;100.00
28310;BME280;15571;50.974;13.936;2023-02-12T10:24:44;102272.47;;;6.28;100.00
28310;BME280;15571;50.974;13.936;2023-02-12T10:27:56;102262.94;;;6.28;100.00
28310;BME280;15571;50.974;13.936;2023-02-12T10:31:02;102270.84;;;6.30;100.00
28310;BME280;15571;50.974;13.936;2023-02-12T10:34:07;102263.09;;;6.31;100.00
28310;BME280;15571;50.974;13.936;2023-02-12T10:37:16;102266.66;;;6.33;100.00
28310;BME280;15571;50.974;13.936;2023-02-12T10:40:22;102274.63;;;6.36;100.00
28310;BME280;15571;50.974;13.936;2023-02-12T10:43:30;102270.34;;;6.38;100.00
28310;BME280;15571;50.974;13.936;2023-02-12T10:46:32;102268.72;;;6.41;100.00
28310;BME280;15571;50.974;13.936;2023-02-12T10:49:34;102268.84;;;6.44;100.00
28310;BME280;15571;50.974;13.936;2023-02-12T10:52:40;102262.88;;;6.46;100.00
28310;BME280;15571;50.974;13.936;2023-02-12T10:55:48;102270.75;;;6.48;100.00
28310;BME280;15571;50.974;13.936;2023-02-12T10:58:55;102259.63;;;6.50;100.00
28310;BME280;15571;50.974;13.936;2023-02-12T11:02:01;102260.63;;;6.54;100.00
28310;BME280;15571;50.974;13.936;2023-02-12T11:05:19;102259.88;;;6.57;100.00
28310;BME280;15571;50.974;13.936;2023-02-12T11:08:31;102258.22;;;6.59;100.00
28310;BME280;15571;50.974;13.936;2023-02-12T11:11:36;102260.88;;;6.60;100.00
28310;BME280;15571;50.974;13.936;2023-02-12T11:14:48;102258.44;;;6.63;100.00
28310;BME280;15571;50.974;13.936;2023-02-12T11:17:54;102253.34;;;6.66;100.00
28310;BME280;15571;50.974;13.936;2023-02-12T11:21:03;102244.81;;;6.69;100.00
28310;BME280;15571;50.974;13.936;2023-02-12T11:24:20;102247.47;;;6.70;100.00
28310;BME280;15571;50.974;13.936;2023-02-12T11:27:28;102237.88;;;6.69;100.00
28310;BME280;15571;50.974;13.936;2023-02-12T11:30:35;102241.56;;;6.75;100.00
28310;BME280;15571;50.974;13.936;2023-02-12T11:34:05;102241.63;;;6.76;100.00
28310;BME280;15571;50.974;13.936;2023-02-12T11:37:10;102237.28;;;6.77;100.00
28310;BME280;15571;50.974;13.936;2023-02-12T11:40:15;102241.78;;;6.79;100.00
28310;BME280;15571;50.974;13.936;2023-02-12T11:43:22;102241.81;;;6.81;100.00
28310;BME280;15571;50.974;13.936;2023-02-12T11:46:36;102237.56;;;6.83;100.00
28310;BME280;15571;50.974;13.936;2023-02-12T11:49:38;102234.16;;;6.84;100.00
28310;BME280;15571;50.974;13.936;2023-02-12T11:52:41;102235.94;;;6.85;100.00
28310;BME280;15571;50.974;13.936;2023-02-12T11:55:43;102232.47;;;6.86;100.00
28310;BME280;15571;50.974;13.936;2023-02-12T11:58:53;102236.03;;;6.88;100.00
28310;BME280;15571;50.974;13.936;2023-02-12T12:02:18;102232.63;;;6.89;100.00
28310;BME280;15571;50.974;13.936;2023-02-12T12:05:28;102230.06;;;6.91;100.00
28310;BME280;15571;50.974;13.936;2023-02-12T12:08:37;102230.84;;;6.88;100.00
28310;BME280;15571;50.974;13.936;2023-02-12T12:11:51;102229.19;;;6.90;100.00
28310;BME280;15571;50.974;13.936;2023-02-12T12:15:01;102228.31;;;6.90;100.00
28310;BME280;15571;50.974;13.936;2023-02-12T12:18:29;102232.75;;;6.92;100.00
28310;BME280;15571;50.974;13.936;2023-02-12T12:21:53;102234.53;;;6.93;100.00
28310;BME280;15571;50.974;13.936;2023-02-12T12:24:59;102231.97;;;6.95;100.00
28310;BME280;15571;50.974;13.936;2023-02-12T12:28:09;102238.16;;;6.97;100.00
28310;BME280;15571;50.974;13.936;2023-02-12T12:31:13;102224.22;;;6.96;100.00
28310;BME280;15571;50.974;13.936;2023-02-12T12:34:17;102221.72;;;6.98;100.00
28310;BME280;15571;50.974;13.936;2023-02-12T12:37:27;102227.78;;;6.98;100.00
28310;BME280;15571;50.974;13.936;2023-02-12T12:40:35;102221.63;;;6.96;100.00
28310;BME280;15571;50.974;13.936;2023-02-12T12:43:45;102213.81;;;6.96;100.00
28310;BME280;15571;50.974;13.936;2023-02-12T12:46:55;102216.41;;;6.96;100.00
28310;BME280;15571;50.974;13.936;2023-02-12T12:50:13;102205.19;;;6.97;100.00
28310;BME280;15571;50.974;13.936;2023-02-12T12:53:20;102206.13;;;6.99;100.00
28310;BME280;15571;50.974;13.936;2023-02-12T12:56:29;102215.72;;;7.00;100.00
28310;BME280;15571;50.974;13.936;2023-02-12T12:59:47;102205.31;;;7.00;100.00
28310;BME280;15571;50.974;13.936;2023-02-12T13:06:16;102202.75;;;7.02;100.00
28310;BME280;15571;50.974;13.936;2023-02-12T13:09:35;102205.19;;;6.97;100.00
28310;BME280;15571;50.974;13.936;2023-02-12T13:13:02;102194.03;;;7.00;100.00
28310;BME280;15571;50.974;13.936;2023-02-12T16:30:40;102250.94;;;6.71;100.00
28310;BME280;15571;50.974;13.936;2023-02-12T20:16:16;102280.13;;;5.87;100.00
28310;BME280;15571;50.974;13.936;2023-02-12T20:19:20;102273.00;;;5.83;100.00
28310;BME280;15571;50.974;13.936;2023-02-12T20:22:22;102276.47;;;5.83;100.00
28310;BME280;15571;50.974;13.936;2023-02-12T20:25:24;102273.75;;;5.80;100.00
28310;BME280;15571;50.974;13.936;2023-02-12T20:28:26;102280.56;;;5.78;100.00
28310;BME280;15571;50.974;13.936;2023-02-12T20:31:31;102281.53;;;5.80;100.00
28310;BME280;15571;50.974;13.936;2023-02-12T20:34:36;102288.53;;;5.81;100.00
28310;BME280;15571;50.974;13.936;2023-02-12T20:37:39;102287.63;;;5.81;100.00
28310;BME280;15571;50.974;13.936;2023-02-12T20:40:41;102284.19;;;5.82;100.00
28310;BME280;15571;50.974;13.936;2023-02-12T20:43:45;102291.13;;;5.81;100.00
28310;BME280;15571;50.974;13.936;2023-02-12T20:46:49;102290.22;;;5.81;100.00
28310;BME280;15571;50.974;13.936;2023-02-12T20:49:51;102288.38;;;5.78;100.00
28310;BME280;15571;50.974;13.936;2023-02-12T20:52:54;102290.81;;;5.75;100.00
28310;BME280;15571;50.974;13.936;2023-02-12T20:55:59;102300.19;;;5.71;100.00
28310;BME280;15571;50.974;13.936;2023-02-12T20:59:01;102302.50;;;5.65;100.00
28310;BME280;15571;50.974;13.936;2023-02-12T21:02:05;102298.09;;;5.64;100.00
28310;BME280;15571;50.974;13.936;2023-02-12T21:05:10;102301.69;;;5.66;100.00
28310;BME280;15571;50.974;13.936;2023-02-12T21:08:12;102295.66;;;5.67;100.00
28310;BME280;15571;50.974;13.936;2023-02-12T21:11:15;102302.63;;;5.68;100.00
28310;BME280;15571;50.974;13.936;2023-02-12T21:14:18;102300.03;;;5.68;100.00
28310;BME280;15571;50.974;13.936;2023-02-12T21:17:22;102306.19;;;5.70;100.00
28310;BME280;15571;50.974;13.936;2023-02-12T21:20:24;102306.13;;;5.69;100.00
28310;BME280;15571;50.974;13.936;2023-02-12T21:23:27;102303.59;;;5.70;100.00
28310;BME280;15571;50.974;13.936;2023-02-12T21:26:30;102304.50;;;5.71;100.00
28310;BME280;15571;50.974;13.936;2023-02-12T21:29:32;102298.38;;;5.70;100.00
28310;BME280;15571;50.974;13.936;2023-02-12T21:32:41;102304.50;;;5.71;100.00
28310;BME280;15571;50.974;13.936;2023-02-12T21:35:43;102307.91;;;5.70;100.00
28310;BME280;15571;50.974;13.936;2023-02-12T21:38:53;102307.75;;;5.67;100.00
28310;BME280;15571;50.974;13.936;2023-02-12T21:41:56;102305.16;;;5.67;100.00
28310;BME280;15571;50.974;13.936;2023-02-12T21:44:59;102310.41;;;5.68;100.00
28310;BME280;15571;50.974;13.936;2023-02-12T21:48:06;102301.69;;;5.66;100.00
28310;BME280;15571;50.974;13.936;2023-02-12T21:51:14;102298.16;;;5.66;100.00
28310;BME280;15571;50.974;13.936;2023-02-12T21:54:18;102301.59;;;5.65;100.00
28310;BME280;15571;50.974;13.936;2023-02-12T21:57:20;102305.00;;;5.64;100.00
28310;BME280;15571;50.974;13.936;2023-02-12T22:00:22;102301.53;;;5.63;100.00
28310;BME280;15571;50.974;13.936;2023-02-12T22:03:28;102298.84;;;5.61;100.00
28310;BME280;15571;50.974;13.936;2023-02-12T22:06:34;102297.06;;;5.60;100.00
28310;BME280;15571;50.974;13.936;2023-02-12T22:09:40;102297.81;;;5.58;100.00
28310;BME280;15571;50.974;13.936;2023-02-12T22:12:42;102302.03;;;5.56;100.00
28310;BME280;15571;50.974;13.936;2023-02-12T22:15:47;102294.91;;;5.52;100.00
28310;BME280;15571;50.974;13.936;2023-02-12T22:18:52;102292.31;;;5.52;100.00
28310;BME280;15571;50.974;13.936;2023-02-12T22:21:55;102299.13;;;5.50;100.00
28310;BME280;15571;50.974;13.936;2023-02-12T22:24:59;102297.22;;;5.45;100.00
28310;BME280;15571;50.974;13.936;2023-02-12T22:28:01;102297.06;;;5.42;100.00
28310;BME280;15571;50.974;13.936;2023-02-12T22:31:04;102294.41;;;5.41;100.00
28310;BME280;15571;50.974;13.936;2023-02-12T22:34:09;102296.91;;;5.39;100.00
28310;BME280;15571;50.974;13.936;2023-02-12T22:37:12;102291.63;;;5.38;100.00
28310;BME280;15571;50.974;13.936;2023-02-12T22:40:14;102277.78;;;5.37;100.00
28310;BME280;15571;50.974;13.936;2023-02-12T22:43:17;102283.69;;;5.35;100.00
28310;BME280;15571;50.974;13.936;2023-02-12T22:46:19;102283.56;;;5.32;100.00
28310;BME280;15571;50.974;13.936;2023-02-12T22:49:23;102286.91;;;5.29;100.00
28310;BME280;15571;50.974;13.936;2023-02-12T22:52:25;102293.72;;;5.27;100.00
28310;BME280;15571;50.974;13.936;2023-02-12T22:55:27;102304.91;;;5.26;100.00
28310;BME280;15571;50.974;13.936;2023-02-12T22:58:30;102316.13;;;5.25;100.00